sensor_id;sensor_type;location;lat;lon;timestamp;P1;durP1;ratioP1;P2;durP2;ratioP2
53299;SDS011;39187;48.476;8.310;2024-01-30T00:02:14;2.30;;;2.20;;
53299;SDS011;39187;48.476;8.310;2024-01-30T00:04:40;2.03;;;1.30;;
53299;SDS011;39187;48.476;8.310;2024-01-30T00:07:05;1.67;;;1.57;;
53299;SDS011;39187;48.476;8.310;2024-01-30T00:09:31;3.60;;;1.80;;
53299;SDS011;39187;48.476;8.310;2024-01-30T00:11:57;2.30;;;2.20;;
53299;SDS011;39187;48.476;8.310;2024-01-30T00:14:22;1.80;;;1.70;;
53299;SDS011;39187;48.476;8.310;2024-01-30T00:16:48;1.80;;;1.70;;
53299;SDS011;39187;48.476;8.310;2024-01-30T00:19:14;2.00;;;1.90;;
53299;SDS011;39187;48.476;8.310;2024-01-30T00:21:39;1.80;;;1.70;;
53299;SDS011;39187;48.476;8.310;2024-01-30T00:24:06;1.97;;;1.87;;
53299;SDS011;39187;48.476;8.310;2024-01-30T00:26:31;1.90;;;1.80;;
53299;SDS011;39187;48.476;8.310;2024-01-30T00:28:57;2.20;;;2.00;;
53299;SDS011;39187;48.476;8.310;2024-01-30T00:31:22;2.87;;;2.00;;
53299;SDS011;39187;48.476;8.310;2024-01-30T00:33:48;1.97;;;1.67;;
53299;SDS011;39187;48.476;8.310;2024-01-30T00:36:14;2.10;;;1.97;;
53299;SDS011;39187;48.476;8.310;2024-01-30T00:38:39;1.90;;;1.80;;
53299;SDS011;39187;48.476;8.310;2024-01-30T00:41:06;2.10;;;1.90;;
53299;SDS011;39187;48.476;8.310;2024-01-30T00:43:33;1.67;;;1.57;;
53299;SDS011;39187;48.476;8.310;2024-01-30T00:45:59;1.97;;;1.77;;
53299;SDS011;39187;48.476;8.310;2024-01-30T00:48:25;3.53;;;2.03;;
53299;SDS011;39187;48.476;8.310;2024-01-30T00:50:50;1.60;;;1.50;;
53299;SDS011;39187;48.476;8.310;2024-01-30T00:53:16;3.27;;;2.20;;
53299;SDS011;39187;48.476;8.310;2024-01-30T00:55:41;3.03;;;1.70;;
53299;SDS011;39187;48.476;8.310;2024-01-30T00:58:07;2.00;;;1.90;;
53299;SDS011;39187;48.476;8.310;2024-01-30T01:00:33;1.70;;;1.60;;
53299;SDS011;39187;48.476;8.310;2024-01-30T01:02:58;1.93;;;1.83;;
53299;SDS011;39187;48.476;8.310;2024-01-30T01:05:24;1.47;;;1.40;;
53299;SDS011;39187;48.476;8.310;2024-01-30T01:07:50;2.00;;;1.80;;
53299;SDS011;39187;48.476;8.310;2024-01-30T01:10:16;2.00;;;1.90;;
53299;SDS011;39187;48.476;8.310;2024-01-30T01:12:42;2.27;;;1.70;;
53299;SDS011;39187;48.476;8.310;2024-01-30T01:15:08;1.87;;;1.77;;
53299;SDS011;39187;48.476;8.310;2024-01-30T01:17:37;4.13;;;1.80;;
53299;SDS011;39187;48.476;8.310;2024-01-30T01:20:03;3.47;;;1.90;;
53299;SDS011;39187;48.476;8.310;2024-01-30T01:22:33;1.83;;;1.67;;
53299;SDS011;39187;48.476;8.310;2024-01-30T01:24:59;2.00;;;1.90;;
53299;SDS011;39187;48.476;8.310;2024-01-30T01:27:25;2.27;;;2.10;;
53299;SDS011;39187;48.476;8.310;2024-01-30T01:29:51;2.00;;;1.90;;
53299;SDS011;39187;48.476;8.310;2024-01-30T01:32:17;1.87;;;1.77;;
53299;SDS011;39187;48.476;8.310;2024-01-30T01:34:43;1.97;;;1.63;;
53299;SDS011;39187;48.476;8.310;2024-01-30T01:37:09;1.67;;;1.57;;
53299;SDS011;39187;48.476;8.310;2024-01-30T01:39:34;2.10;;;2.00;;
53299;SDS011;39187;48.476;8.310;2024-01-30T01:42:00;2.00;;;1.90;;
53299;SDS011;39187;48.476;8.310;2024-01-30T01:44:25;2.20;;;2.10;;
53299;SDS011;39187;48.476;8.310;2024-01-30T01:46:51;1.87;;;1.77;;
53299;SDS011;39187;48.476;8.310;2024-01-30T01:49:18;2.67;;;2.13;;
53299;SDS011;39187;48.476;8.310;2024-01-30T01:51:45;2.47;;;2.30;;
53299;SDS011;39187;48.476;8.310;2024-01-30T01:54:12;2.47;;;2.37;;
53299;SDS011;39187;48.476;8.310;2024-01-30T01:56:39;1.80;;;1.70;;
53299;SDS011;39187;48.476;8.310;2024-01-30T01:59:06;1.90;;;1.80;;
53299;SDS011;39187;48.476;8.310;2024-01-30T02:01:33;2.63;;;1.90;;
53299;SDS011;39187;48.476;8.310;2024-01-30T02:04:00;1.70;;;1.60;;
53299;SDS011;39187;48.476;8.310;2024-01-30T02:06:26;2.20;;;2.00;;
53299;SDS011;39187;48.476;8.310;2024-01-30T02:08:52;2.03;;;1.93;;
53299;SDS011;39187;48.476;8.310;2024-01-30T02:11:19;2.43;;;2.33;;
53299;SDS011;39187;48.476;8.310;2024-01-30T02:13:45;2.10;;;2.00;;
53299;SDS011;39187;48.476;8.310;2024-01-30T02:16:10;2.10;;;2.00;;
53299;SDS011;39187;48.476;8.310;2024-01-30T02:18:36;2.00;;;1.90;;
53299;SDS011;39187;48.476;8.310;2024-01-30T02:21:07;2.90;;;1.43;;
53299;SDS011;39187;48.476;8.310;2024-01-30T02:23:33;2.07;;;1.97;;
53299;SDS011;39187;48.476;8.310;2024-01-30T02:25:59;2.17;;;2.07;;
53299;SDS011;39187;48.476;8.310;2024-01-30T02:28:25;3.57;;;2.40;;
53299;SDS011;39187;48.476;8.310;2024-01-30T02:30:52;2.40;;;1.80;;
53299;SDS011;39187;48.476;8.310;2024-01-30T02:33:18;1.93;;;1.83;;
53299;SDS011;39187;48.476;8.310;2024-01-30T02:35:43;2.80;;;1.77;;
53299;SDS011;39187;48.476;8.310;2024-01-30T02:38:09;2.80;;;1.57;;
53299;SDS011;39187;48.476;8.310;2024-01-30T02:40:34;1.80;;;1.70;;
53299;SDS011;39187;48.476;8.310;2024-01-30T02:43:01;3.03;;;1.73;;
53299;SDS011;39187;48.476;8.310;2024-01-30T02:45:27;2.20;;;2.10;;
53299;SDS011;39187;48.476;8.310;2024-01-30T02:47:53;2.37;;;2.27;;
53299;SDS011;39187;48.476;8.310;2024-01-30T02:50:18;1.97;;;1.87;;
53299;SDS011;39187;48.476;8.310;2024-01-30T02:52:44;1.70;;;1.60;;
53299;SDS011;39187;48.476;8.310;2024-01-30T02:55:10;3.60;;;1.83;;
53299;SDS011;39187;48.476;8.310;2024-01-30T02:57:36;2.50;;;2.30;;
53299;SDS011;39187;48.476;8.310;2024-01-30T03:00:02;2.43;;;2.33;;
53299;SDS011;39187;48.476;8.310;2024-01-30T03:02:29;2.20;;;1.70;;
53299;SDS011;39187;48.476;8.310;2024-01-30T03:04:54;2.83;;;2.10;;
53299;SDS011;39187;48.476;8.310;2024-01-30T03:07:20;2.03;;;1.70;;
53299;SDS011;39187;48.476;8.310;2024-01-30T03:09:45;2.07;;;1.97;;
53299;SDS011;39187;48.476;8.310;2024-01-30T03:12:11;1.97;;;1.87;;
53299;SDS011;39187;48.476;8.310;2024-01-30T03:14:36;1.97;;;1.77;;
53299;SDS011;39187;48.476;8.310;2024-01-30T03:17:02;1.80;;;1.70;;
53299;SDS011;39187;48.476;8.310;2024-01-30T03:19:28;1.57;;;1.47;;
53299;SDS011;39187;48.476;8.310;2024-01-30T03:21:54;3.83;;;1.87;;
53299;SDS011;39187;48.476;8.310;2024-01-30T03:24:19;2.13;;;1.83;;
53299;SDS011;39187;48.476;8.310;2024-01-30T03:26:45;2.50;;;2.03;;
53299;SDS011;39187;48.476;8.310;2024-01-30T03:29:10;2.27;;;2.17;;
53299;SDS011;39187;48.476;8.310;2024-01-30T03:31:36;2.13;;;1.80;;
53299;SDS011;39187;48.476;8.310;2024-01-30T03:34:01;1.70;;;1.60;;
53299;SDS011;39187;48.476;8.310;2024-01-30T03:36:27;2.30;;;2.10;;
53299;SDS011;39187;48.476;8.310;2024-01-30T03:38:53;1.83;;;1.73;;
53299;SDS011;39187;48.476;8.310;2024-01-30T03:41:19;2.87;;;2.07;;
53299;SDS011;39187;48.476;8.310;2024-01-30T03:43:45;1.90;;;1.80;;
53299;SDS011;39187;48.476;8.310;2024-01-30T03:46:12;1.47;;;1.37;;
53299;SDS011;39187;48.476;8.310;2024-01-30T03:48:38;1.80;;;1.70;;
53299;SDS011;39187;48.476;8.310;2024-01-30T03:51:04;2.07;;;1.97;;
53299;SDS011;39187;48.476;8.310;2024-01-30T03:53:30;2.23;;;2.03;;
53299;SDS011;39187;48.476;8.310;2024-01-30T03:55:56;1.83;;;1.73;;
53299;SDS011;39187;48.476;8.310;2024-01-30T03:58:21;2.20;;;1.50;;
53299;SDS011;39187;48.476;8.310;2024-01-30T04:00:47;1.57;;;1.47;;
53299;SDS011;39187;48.476;8.310;2024-01-30T04:03:14;2.53;;;1.97;;
53299;SDS011;39187;48.476;8.310;2024-01-30T04:05:40;2.53;;;2.07;;
53299;SDS011;39187;48.476;8.310;2024-01-30T04:08:06;2.30;;;2.10;;
53299;SDS011;39187;48.476;8.310;2024-01-30T04:10:32;2.03;;;1.93;;
53299;SDS011;39187;48.476;8.310;2024-01-30T04:12:58;1.80;;;1.70;;
53299;SDS011;39187;48.476;8.310;2024-01-30T04:15:24;1.90;;;1.80;;
53299;SDS011;39187;48.476;8.310;2024-01-30T04:17:50;1.73;;;1.63;;
53299;SDS011;39187;48.476;8.310;2024-01-30T04:20:16;2.47;;;2.27;;
53299;SDS011;39187;48.476;8.310;2024-01-30T04:22:43;2.30;;;2.20;;
53299;SDS011;39187;48.476;8.310;2024-01-30T04:25:09;2.50;;;2.40;;
53299;SDS011;39187;48.476;8.310;2024-01-30T04:27:35;2.60;;;2.50;;
53299;SDS011;39187;48.476;8.310;2024-01-30T04:30:01;2.23;;;2.13;;
53299;SDS011;39187;48.476;8.310;2024-01-30T04:32:27;2.17;;;2.07;;
53299;SDS011;39187;48.476;8.310;2024-01-30T04:34:52;2.07;;;1.97;;
53299;SDS011;39187;48.476;8.310;2024-01-30T04:37:18;2.83;;;2.60;;
53299;SDS011;39187;48.476;8.310;2024-01-30T04:39:43;3.00;;;2.03;;
53299;SDS011;39187;48.476;8.310;2024-01-30T04:42:09;2.00;;;1.90;;
53299;SDS011;39187;48.476;8.310;2024-01-30T04:44:34;2.47;;;2.37;;
53299;SDS011;39187;48.476;8.310;2024-01-30T04:47:00;2.50;;;2.40;;
53299;SDS011;39187;48.476;8.310;2024-01-30T04:49:26;2.60;;;2.50;;
53299;SDS011;39187;48.476;8.310;2024-01-30T04:51:52;2.60;;;2.50;;
53299;SDS011;39187;48.476;8.310;2024-01-30T04:54:18;3.53;;;2.37;;
53299;SDS011;39187;48.476;8.310;2024-01-30T04:56:43;2.43;;;2.07;;
53299;SDS011;39187;48.476;8.310;2024-01-30T04:59:09;2.40;;;2.20;;
53299;SDS011;39187;48.476;8.310;2024-01-30T05:01:34;2.23;;;2.10;;
53299;SDS011;39187;48.476;8.310;2024-01-30T05:04:00;2.73;;;2.57;;
53299;SDS011;39187;48.476;8.310;2024-01-30T05:06:26;2.57;;;2.47;;
53299;SDS011;39187;48.476;8.310;2024-01-30T05:08:52;3.83;;;2.43;;
53299;SDS011;39187;48.476;8.310;2024-01-30T05:11:18;2.43;;;2.33;;
53299;SDS011;39187;48.476;8.310;2024-01-30T05:13:43;2.77;;;1.97;;
53299;SDS011;39187;48.476;8.310;2024-01-30T05:16:09;2.43;;;2.23;;
53299;SDS011;39187;48.476;8.310;2024-01-30T05:18:35;4.13;;;2.23;;
53299;SDS011;39187;48.476;8.310;2024-01-30T05:21:01;2.93;;;2.73;;
53299;SDS011;39187;48.476;8.310;2024-01-30T05:23:27;3.60;;;2.60;;
53299;SDS011;39187;48.476;8.310;2024-01-30T05:25:53;6.20;;;2.90;;
53299;SDS011;39187;48.476;8.310;2024-01-30T05:28:18;2.20;;;2.10;;
53299;SDS011;39187;48.476;8.310;2024-01-30T05:30:44;6.70;;;2.40;;
53299;SDS011;39187;48.476;8.310;2024-01-30T05:33:09;4.67;;;2.30;;
53299;SDS011;39187;48.476;8.310;2024-01-30T05:35:37;2.70;;;2.50;;
53299;SDS011;39187;48.476;8.310;2024-01-30T05:38:03;2.17;;;2.07;;
53299;SDS011;39187;48.476;8.310;2024-01-30T05:40:29;3.00;;;2.80;;
53299;SDS011;39187;48.476;8.310;2024-01-30T05:42:55;2.73;;;2.63;;
53299;SDS011;39187;48.476;8.310;2024-01-30T05:45:21;3.63;;;2.90;;
53299;SDS011;39187;48.476;8.310;2024-01-30T05:47:48;2.73;;;2.53;;
53299;SDS011;39187;48.476;8.310;2024-01-30T05:50:14;2.60;;;2.50;;
53299;SDS011;39187;48.476;8.310;2024-01-30T05:52:40;3.53;;;3.33;;
53299;SDS011;39187;48.476;8.310;2024-01-30T05:55:05;2.80;;;2.60;;
53299;SDS011;39187;48.476;8.310;2024-01-30T05:57:31;2.73;;;2.63;;
53299;SDS011;39187;48.476;8.310;2024-01-30T05:59:57;2.20;;;2.07;;
53299;SDS011;39187;48.476;8.310;2024-01-30T06:02:22;3.53;;;3.33;;
53299;SDS011;39187;48.476;8.310;2024-01-30T06:04:48;2.70;;;2.57;;
53299;SDS011;39187;48.476;8.310;2024-01-30T06:07:13;2.87;;;2.67;;
53299;SDS011;39187;48.476;8.310;2024-01-30T06:09:39;2.90;;;2.30;;
53299;SDS011;39187;48.476;8.310;2024-01-30T06:12:05;2.30;;;2.20;;
53299;SDS011;39187;48.476;8.310;2024-01-30T06:14:31;3.00;;;2.80;;
53299;SDS011;39187;48.476;8.310;2024-01-30T06:16:58;2.53;;;2.43;;
53299;SDS011;39187;48.476;8.310;2024-01-30T06:19:24;3.20;;;3.00;;
53299;SDS011;39187;48.476;8.310;2024-01-30T06:21:49;3.47;;;3.17;;
53299;SDS011;39187;48.476;8.310;2024-01-30T06:24:15;5.23;;;2.30;;
53299;SDS011;39187;48.476;8.310;2024-01-30T06:26:40;2.03;;;1.93;;
53299;SDS011;39187;48.476;8.310;2024-01-30T06:29:06;3.03;;;2.03;;
53299;SDS011;39187;48.476;8.310;2024-01-30T06:31:32;2.20;;;2.07;;
53299;SDS011;39187;48.476;8.310;2024-01-30T06:33:58;2.63;;;2.53;;
53299;SDS011;39187;48.476;8.310;2024-01-30T06:36:24;2.80;;;2.20;;
53299;SDS011;39187;48.476;8.310;2024-01-30T06:38:49;3.27;;;2.97;;
53299;SDS011;39187;48.476;8.310;2024-01-30T06:41:15;2.50;;;2.40;;
53299;SDS011;39187;48.476;8.310;2024-01-30T06:43:40;2.40;;;2.30;;
53299;SDS011;39187;48.476;8.310;2024-01-30T06:46:06;2.73;;;2.63;;
53299;SDS011;39187;48.476;8.310;2024-01-30T06:48:31;3.80;;;2.67;;
53299;SDS011;39187;48.476;8.310;2024-01-30T06:50:57;2.17;;;2.03;;
53299;SDS011;39187;48.476;8.310;2024-01-30T06:53:23;2.87;;;2.70;;
53299;SDS011;39187;48.476;8.310;2024-01-30T06:55:48;4.97;;;2.80;;
53299;SDS011;39187;48.476;8.310;2024-01-30T06:58:14;2.80;;;2.60;;
53299;SDS011;39187;48.476;8.310;2024-01-30T07:00:40;2.77;;;2.30;;
53299;SDS011;39187;48.476;8.310;2024-01-30T07:03:05;1.90;;;1.80;;
53299;SDS011;39187;48.476;8.310;2024-01-30T07:05:31;2.60;;;2.40;;
53299;SDS011;39187;48.476;8.310;2024-01-30T07:07:57;2.50;;;2.40;;
53299;SDS011;39187;48.476;8.310;2024-01-30T07:10:22;2.73;;;2.53;;
53299;SDS011;39187;48.476;8.310;2024-01-30T07:12:48;2.53;;;2.40;;
53299;SDS011;39187;48.476;8.310;2024-01-30T07:15:13;2.27;;;1.87;;
53299;SDS011;39187;48.476;8.310;2024-01-30T07:17:42;2.60;;;2.10;;
53299;SDS011;39187;48.476;8.310;2024-01-30T07:20:07;2.93;;;2.73;;
53299;SDS011;39187;48.476;8.310;2024-01-30T07:22:34;2.53;;;2.33;;
53299;SDS011;39187;48.476;8.310;2024-01-30T07:24:59;3.40;;;2.60;;
53299;SDS011;39187;48.476;8.310;2024-01-30T07:27:25;3.50;;;2.27;;
53299;SDS011;39187;48.476;8.310;2024-01-30T07:29:50;2.60;;;2.50;;
53299;SDS011;39187;48.476;8.310;2024-01-30T07:32:16;2.20;;;2.03;;
53299;SDS011;39187;48.476;8.310;2024-01-30T07:34:41;2.80;;;2.70;;
53299;SDS011;39187;48.476;8.310;2024-01-30T07:37:07;2.60;;;1.80;;
53299;SDS011;39187;48.476;8.310;2024-01-30T07:39:33;3.90;;;2.03;;
53299;SDS011;39187;48.476;8.310;2024-01-30T07:41:59;1.90;;;1.43;;
53299;SDS011;39187;48.476;8.310;2024-01-30T07:44:25;1.80;;;1.70;;
53299;SDS011;39187;48.476;8.310;2024-01-30T07:46:50;1.93;;;1.83;;
53299;SDS011;39187;48.476;8.310;2024-01-30T07:49:16;2.20;;;2.00;;
53299;SDS011;39187;48.476;8.310;2024-01-30T07:51:42;2.00;;;1.90;;
53299;SDS011;39187;48.476;8.310;2024-01-30T07:54:11;1.93;;;1.80;;
53299;SDS011;39187;48.476;8.310;2024-01-30T07:56:36;2.30;;;2.00;;
53299;SDS011;39187;48.476;8.310;2024-01-30T07:59:02;1.80;;;1.70;;
53299;SDS011;39187;48.476;8.310;2024-01-30T08:01:27;2.10;;;2.00;;
53299;SDS011;39187;48.476;8.310;2024-01-30T08:03:53;1.97;;;1.87;;
53299;SDS011;39187;48.476;8.310;2024-01-30T08:06:18;2.20;;;1.90;;
53299;SDS011;39187;48.476;8.310;2024-01-30T08:08:44;1.97;;;1.87;;
53299;SDS011;39187;48.476;8.310;2024-01-30T08:11:10;2.20;;;2.10;;
53299;SDS011;39187;48.476;8.310;2024-01-30T08:13:35;2.23;;;2.13;;
53299;SDS011;39187;48.476;8.310;2024-01-30T08:16:01;2.53;;;2.33;;
53299;SDS011;39187;48.476;8.310;2024-01-30T08:18:26;2.20;;;2.10;;
53299;SDS011;39187;48.476;8.310;2024-01-30T08:20:52;2.30;;;2.10;;
53299;SDS011;39187;48.476;8.310;2024-01-30T08:23:17;2.40;;;2.30;;
53299;SDS011;39187;48.476;8.310;2024-01-30T08:25:43;2.13;;;2.03;;
53299;SDS011;39187;48.476;8.310;2024-01-30T08:28:08;2.30;;;1.97;;
53299;SDS011;39187;48.476;8.310;2024-01-30T08:30:34;1.93;;;1.83;;
53299;SDS011;39187;48.476;8.310;2024-01-30T08:33:00;3.90;;;2.70;;
53299;SDS011;39187;48.476;8.310;2024-01-30T08:35:26;2.50;;;2.30;;
53299;SDS011;39187;48.476;8.310;2024-01-30T08:37:51;4.30;;;2.37;;
53299;SDS011;39187;48.476;8.310;2024-01-30T08:40:17;2.43;;;2.33;;
53299;SDS011;39187;48.476;8.310;2024-01-30T08:42:42;2.70;;;2.50;;
53299;SDS011;39187;48.476;8.310;2024-01-30T08:45:08;2.80;;;2.60;;
53299;SDS011;39187;48.476;8.310;2024-01-30T08:47:34;2.43;;;2.33;;
53299;SDS011;39187;48.476;8.310;2024-01-30T08:49:59;2.43;;;2.33;;
53299;SDS011;39187;48.476;8.310;2024-01-30T08:52:25;2.50;;;2.40;;
53299;SDS011;39187;48.476;8.310;2024-01-30T08:54:50;5.03;;;2.27;;
53299;SDS011;39187;48.476;8.310;2024-01-30T08:57:16;3.03;;;2.83;;
53299;SDS011;39187;48.476;8.310;2024-01-30T08:59:41;2.40;;;2.30;;
53299;SDS011;39187;48.476;8.310;2024-01-30T09:02:09;2.80;;;2.60;;
53299;SDS011;39187;48.476;8.310;2024-01-30T09:04:35;2.43;;;2.33;;
53299;SDS011;39187;48.476;8.310;2024-01-30T09:07:00;2.77;;;2.63;;
53299;SDS011;39187;48.476;8.310;2024-01-30T09:09:26;2.87;;;2.67;;
53299;SDS011;39187;48.476;8.310;2024-01-30T09:11:51;3.63;;;2.83;;
53299;SDS011;39187;48.476;8.310;2024-01-30T09:14:17;2.33;;;2.23;;
53299;SDS011;39187;48.476;8.310;2024-01-30T09:16:42;2.60;;;2.40;;
53299;SDS011;39187;48.476;8.310;2024-01-30T09:19:08;2.27;;;2.17;;
53299;SDS011;39187;48.476;8.310;2024-01-30T09:21:33;2.70;;;2.50;;
53299;SDS011;39187;48.476;8.310;2024-01-30T09:24:02;2.83;;;2.37;;
53299;SDS011;39187;48.476;8.310;2024-01-30T09:26:31;3.17;;;2.97;;
53299;SDS011;39187;48.476;8.310;2024-01-30T09:28:57;2.47;;;2.33;;
53299;SDS011;39187;48.476;8.310;2024-01-30T09:31:22;2.50;;;2.30;;
53299;SDS011;39187;48.476;8.310;2024-01-30T09:33:48;3.00;;;2.60;;
53299;SDS011;39187;48.476;8.310;2024-01-30T09:36:14;3.33;;;2.73;;
53299;SDS011;39187;48.476;8.310;2024-01-30T09:38:44;2.30;;;2.20;;
53299;SDS011;39187;48.476;8.310;2024-01-30T09:41:10;2.40;;;2.30;;
53299;SDS011;39187;48.476;8.310;2024-01-30T09:43:36;2.57;;;2.47;;
53299;SDS011;39187;48.476;8.310;2024-01-30T09:46:04;2.67;;;2.47;;
53299;SDS011;39187;48.476;8.310;2024-01-30T09:48:30;2.73;;;2.53;;
53299;SDS011;39187;48.476;8.310;2024-01-30T09:50:58;2.20;;;2.10;;
53299;SDS011;39187;48.476;8.310;2024-01-30T09:53:23;2.37;;;2.27;;
53299;SDS011;39187;48.476;8.310;2024-01-30T09:55:49;2.60;;;2.40;;
53299;SDS011;39187;48.476;8.310;2024-01-30T09:58:16;3.00;;;2.17;;
53299;SDS011;39187;48.476;8.310;2024-01-30T10:00:42;1.97;;;1.87;;
53299;SDS011;39187;48.476;8.310;2024-01-30T10:03:08;2.20;;;2.10;;
53299;SDS011;39187;48.476;8.310;2024-01-30T10:05:34;2.47;;;2.37;;
53299;SDS011;39187;48.476;8.310;2024-01-30T10:08:05;2.67;;;2.47;;
53299;SDS011;39187;48.476;8.310;2024-01-30T10:10:33;2.73;;;2.03;;
53299;SDS011;39187;48.476;8.310;2024-01-30T10:12:59;4.33;;;2.27;;
53299;SDS011;39187;48.476;8.310;2024-01-30T10:15:25;2.10;;;2.00;;
53299;SDS011;39187;48.476;8.310;2024-01-30T10:17:50;2.53;;;2.43;;
53299;SDS011;39187;48.476;8.310;2024-01-30T10:20:16;2.60;;;2.40;;
53299;SDS011;39187;48.476;8.310;2024-01-30T10:22:44;2.40;;;2.30;;
53299;SDS011;39187;48.476;8.310;2024-01-30T10:25:10;2.83;;;2.63;;
53299;SDS011;39187;48.476;8.310;2024-01-30T10:27:36;7.20;;;2.50;;
53299;SDS011;39187;48.476;8.310;2024-01-30T10:30:02;2.30;;;2.20;;
53299;SDS011;39187;48.476;8.310;2024-01-30T10:32:29;3.30;;;3.10;;
53299;SDS011;39187;48.476;8.310;2024-01-30T10:34:54;3.10;;;2.90;;
53299;SDS011;39187;48.476;8.310;2024-01-30T10:37:21;3.17;;;2.97;;
53299;SDS011;39187;48.476;8.310;2024-01-30T10:39:50;2.70;;;2.50;;
53299;SDS011;39187;48.476;8.310;2024-01-30T10:42:22;3.00;;;2.80;;
53299;SDS011;39187;48.476;8.310;2024-01-30T10:45:07;2.43;;;2.23;;
53299;SDS011;39187;48.476;8.310;2024-01-30T10:47:34;3.43;;;3.23;;
53299;SDS011;39187;48.476;8.310;2024-01-30T10:50:04;2.63;;;2.40;;
53299;SDS011;39187;48.476;8.310;2024-01-30T10:52:30;2.83;;;2.63;;
53299;SDS011;39187;48.476;8.310;2024-01-30T10:54:57;5.63;;;2.73;;
53299;SDS011;39187;48.476;8.310;2024-01-30T10:57:24;2.80;;;2.70;;
53299;SDS011;39187;48.476;8.310;2024-01-30T10:59:53;2.60;;;2.50;;
53299;SDS011;39187;48.476;8.310;2024-01-30T11:02:22;2.70;;;2.60;;
53299;SDS011;39187;48.476;8.310;2024-01-30T11:04:49;5.07;;;2.70;;
53299;SDS011;39187;48.476;8.310;2024-01-30T11:07:23;3.10;;;2.80;;
53299;SDS011;39187;48.476;8.310;2024-01-30T11:09:50;2.73;;;2.50;;
53299;SDS011;39187;48.476;8.310;2024-01-30T11:12:21;3.67;;;3.30;;
53299;SDS011;39187;48.476;8.310;2024-01-30T11:15:06;2.87;;;2.77;;
53299;SDS011;39187;48.476;8.310;2024-01-30T11:20:14;2.70;;;2.53;;
53299;SDS011;39187;48.476;8.310;2024-01-30T11:22:47;2.50;;;2.40;;
53299;SDS011;39187;48.476;8.310;2024-01-30T11:25:17;2.60;;;2.40;;
53299;SDS011;39187;48.476;8.310;2024-01-30T11:27:45;2.80;;;2.70;;
53299;SDS011;39187;48.476;8.310;2024-01-30T11:30:30;3.93;;;3.60;;
53299;SDS011;39187;48.476;8.310;2024-01-30T11:33:04;2.80;;;2.60;;
53299;SDS011;39187;48.476;8.310;2024-01-30T11:38:07;3.30;;;2.43;;
53299;SDS011;39187;48.476;8.310;2024-01-30T11:40:34;6.37;;;3.00;;
53299;SDS011;39187;48.476;8.310;2024-01-30T11:43:01;3.10;;;2.70;;
53299;SDS011;39187;48.476;8.310;2024-01-30T11:45:29;2.97;;;2.77;;
53299;SDS011;39187;48.476;8.310;2024-01-30T11:47:56;3.10;;;2.80;;
53299;SDS011;39187;48.476;8.310;2024-01-30T11:50:22;4.40;;;3.07;;
53299;SDS011;39187;48.476;8.310;2024-01-30T11:52:49;3.33;;;3.13;;
53299;SDS011;39187;48.476;8.310;2024-01-30T11:55:15;3.73;;;3.33;;
53299;SDS011;39187;48.476;8.310;2024-01-30T11:57:41;3.23;;;3.13;;
53299;SDS011;39187;48.476;8.310;2024-01-30T12:00:13;3.20;;;3.03;;
53299;SDS011;39187;48.476;8.310;2024-01-30T12:02:40;3.83;;;3.40;;
53299;SDS011;39187;48.476;8.310;2024-01-30T12:05:06;3.27;;;3.10;;
53299;SDS011;39187;48.476;8.310;2024-01-30T12:07:33;3.20;;;3.00;;
53299;SDS011;39187;48.476;8.310;2024-01-30T12:09:58;4.40;;;4.10;;
53299;SDS011;39187;48.476;8.310;2024-01-30T12:12:28;3.83;;;3.47;;
53299;SDS011;39187;48.476;8.310;2024-01-30T12:14:55;3.70;;;3.50;;
53299;SDS011;39187;48.476;8.310;2024-01-30T12:17:28;3.83;;;3.60;;
53299;SDS011;39187;48.476;8.310;2024-01-30T12:22:42;3.47;;;3.17;;
53299;SDS011;39187;48.476;8.310;2024-01-30T12:25:10;3.60;;;3.30;;
53299;SDS011;39187;48.476;8.310;2024-01-30T12:27:36;3.77;;;3.47;;
53299;SDS011;39187;48.476;8.310;2024-01-30T12:30:06;3.53;;;3.33;;
53299;SDS011;39187;48.476;8.310;2024-01-30T12:32:36;3.20;;;3.00;;
53299;SDS011;39187;48.476;8.310;2024-01-30T12:35:16;2.83;;;2.70;;
53299;SDS011;39187;48.476;8.310;2024-01-30T12:37:43;3.63;;;3.33;;
53299;SDS011;39187;48.476;8.310;2024-01-30T12:40:09;3.00;;;2.80;;
53299;SDS011;39187;48.476;8.310;2024-01-30T12:42:36;3.40;;;3.10;;
53299;SDS011;39187;48.476;8.310;2024-01-30T12:45:02;2.80;;;2.60;;
53299;SDS011;39187;48.476;8.310;2024-01-30T12:47:29;3.73;;;2.90;;
53299;SDS011;39187;48.476;8.310;2024-01-30T12:49:55;3.23;;;3.00;;
53299;SDS011;39187;48.476;8.310;2024-01-30T12:52:21;6.10;;;3.57;;
53299;SDS011;39187;48.476;8.310;2024-01-30T12:54:50;3.23;;;3.03;;
53299;SDS011;39187;48.476;8.310;2024-01-30T12:57:16;2.80;;;2.60;;
53299;SDS011;39187;48.476;8.310;2024-01-30T12:59:45;3.87;;;3.57;;
53299;SDS011;39187;48.476;8.310;2024-01-30T13:02:12;3.57;;;3.37;;
53299;SDS011;39187;48.476;8.310;2024-01-30T13:04:38;3.90;;;3.70;;
53299;SDS011;39187;48.476;8.310;2024-01-30T13:07:04;3.40;;;3.30;;
53299;SDS011;39187;48.476;8.310;2024-01-30T13:09:30;5.20;;;3.40;;
53299;SDS011;39187;48.476;8.310;2024-01-30T13:11:58;3.30;;;3.17;;
53299;SDS011;39187;48.476;8.310;2024-01-30T13:14:25;3.60;;;3.30;;
53299;SDS011;39187;48.476;8.310;2024-01-30T13:16:50;4.73;;;3.40;;
53299;SDS011;39187;48.476;8.310;2024-01-30T13:19:17;4.23;;;3.77;;
53299;SDS011;39187;48.476;8.310;2024-01-30T13:21:42;3.77;;;3.47;;
53299;SDS011;39187;48.476;8.310;2024-01-30T13:24:08;3.50;;;3.30;;
53299;SDS011;39187;48.476;8.310;2024-01-30T13:26:34;3.40;;;3.20;;
53299;SDS011;39187;48.476;8.310;2024-01-30T13:29:00;3.07;;;2.87;;
53299;SDS011;39187;48.476;8.310;2024-01-30T13:31:26;3.17;;;3.00;;
53299;SDS011;39187;48.476;8.310;2024-01-30T13:33:52;4.13;;;3.73;;
53299;SDS011;39187;48.476;8.310;2024-01-30T13:36:18;3.73;;;3.53;;
53299;SDS011;39187;48.476;8.310;2024-01-30T13:38:44;4.13;;;3.83;;
53299;SDS011;39187;48.476;8.310;2024-01-30T13:41:09;3.73;;;3.53;;
53299;SDS011;39187;48.476;8.310;2024-01-30T13:43:35;6.30;;;3.47;;
53299;SDS011;39187;48.476;8.310;2024-01-30T13:46:00;3.60;;;3.30;;
53299;SDS011;39187;48.476;8.310;2024-01-30T13:48:26;4.00;;;3.67;;
53299;SDS011;39187;48.476;8.310;2024-01-30T13:50:51;3.90;;;3.70;;
53299;SDS011;39187;48.476;8.310;2024-01-30T13:53:18;3.43;;;3.23;;
53299;SDS011;39187;48.476;8.310;2024-01-30T13:55:43;4.57;;;3.30;;
53299;SDS011;39187;48.476;8.310;2024-01-30T13:58:09;3.93;;;3.67;;
53299;SDS011;39187;48.476;8.310;2024-01-30T14:00:34;4.03;;;3.80;;
53299;SDS011;39187;48.476;8.310;2024-01-30T14:03:00;4.33;;;4.13;;
53299;SDS011;39187;48.476;8.310;2024-01-30T14:05:26;4.63;;;4.33;;
53299;SDS011;39187;48.476;8.310;2024-01-30T14:07:53;3.83;;;3.60;;
53299;SDS011;39187;48.476;8.310;2024-01-30T14:10:19;3.70;;;3.40;;
53299;SDS011;39187;48.476;8.310;2024-01-30T14:12:45;4.03;;;3.30;;
53299;SDS011;39187;48.476;8.310;2024-01-30T14:15:12;4.80;;;4.37;;
53299;SDS011;39187;48.476;8.310;2024-01-30T14:17:38;10.10;;;7.10;;
53299;SDS011;39187;48.476;8.310;2024-01-30T14:20:03;5.20;;;4.80;;
53299;SDS011;39187;48.476;8.310;2024-01-30T14:22:30;12.80;;;9.63;;
53299;SDS011;39187;48.476;8.310;2024-01-30T14:24:56;10.90;;;9.23;;
53299;SDS011;39187;48.476;8.310;2024-01-30T14:27:21;5.70;;;5.30;;
53299;SDS011;39187;48.476;8.310;2024-01-30T14:29:47;7.37;;;6.63;;
53299;SDS011;39187;48.476;8.310;2024-01-30T14:32:12;7.30;;;4.50;;
53299;SDS011;39187;48.476;8.310;2024-01-30T14:34:38;4.97;;;4.30;;
53299;SDS011;39187;48.476;8.310;2024-01-30T14:37:04;4.97;;;4.70;;
53299;SDS011;39187;48.476;8.310;2024-01-30T14:39:30;4.10;;;3.80;;
53299;SDS011;39187;48.476;8.310;2024-01-30T14:41:55;4.30;;;4.00;;
53299;SDS011;39187;48.476;8.310;2024-01-30T14:44:21;4.60;;;4.30;;
53299;SDS011;39187;48.476;8.310;2024-01-30T14:46:47;4.73;;;4.33;;
53299;SDS011;39187;48.476;8.310;2024-01-30T14:49:13;5.20;;;4.80;;
53299;SDS011;39187;48.476;8.310;2024-01-30T14:51:40;4.40;;;4.20;;